createdAt,value
2023-04-11T00:02:01.521Z,10.03
2023-04-11T00:05:05.773Z,9.98
2023-04-11T00:08:08.511Z,9.99
2023-04-11T00:11:11.132Z,9.96
2023-04-11T00:14:15.294Z,9.91
2023-04-11T00:17:17.844Z,9.91
2023-04-11T00:20:20.774Z,9.95
2023-04-11T00:23:23.537Z,9.89
2023-04-11T00:26:26.147Z,9.85
2023-04-11T00:29:28.835Z,9.80
2023-04-11T00:32:31.509Z,9.73
2023-04-11T00:35:35.239Z,9.77
2023-04-11T00:38:38.247Z,9.77
2023-04-11T00:41:40.874Z,9.73
2023-04-11T00:44:43.733Z,9.67
2023-04-11T00:47:46.528Z,9.63
2023-04-11T00:50:49.245Z,9.65
2023-04-11T00:53:52.111Z,9.66
2023-04-11T00:56:56.107Z,9.57
2023-04-11T00:59:59.186Z,9.59
2023-04-11T01:03:02.482Z,9.52
2023-04-11T01:06:06.917Z,9.46
2023-04-11T01:09:09.709Z,9.44
2023-04-11T01:12:12.550Z,9.41
2023-04-11T01:15:15.700Z,9.34
2023-04-11T01:18:18.358Z,9.37
2023-04-11T01:21:21.667Z,9.34
2023-04-11T01:24:24.863Z,9.35
2023-04-11T01:27:27.552Z,9.31
2023-04-11T01:30:30.391Z,9.34
2023-04-11T01:33:33.230Z,9.29
2023-04-11T01:36:36.980Z,9.32
2023-04-11T01:39:39.702Z,9.24
2023-04-11T01:42:42.814Z,9.21
2023-04-11T01:45:45.502Z,9.17
2023-04-11T01:48:49.623Z,9.15
2023-04-11T01:51:52.473Z,9.04
2023-04-11T01:54:55.785Z,8.99
2023-04-11T01:57:58.394Z,8.91
2023-04-11T02:01:01.859Z,8.86
2023-04-11T02:04:05.297Z,8.83
2023-04-11T02:07:07.710Z,8.80
2023-04-11T02:10:10.721Z,8.81
2023-04-11T02:13:13.234Z,8.80
2023-04-11T02:16:18.101Z,8.89
2023-04-11T02:19:21.213Z,8.86
2023-04-11T02:22:23.847Z,8.84
2023-04-11T02:25:26.531Z,8.83
2023-04-11T02:28:29.771Z,8.81
2023-04-11T02:31:32.432Z,8.81
2023-04-11T02:34:35.176Z,8.78
2023-04-11T02:37:38.033Z,8.77
2023-04-11T02:40:40.651Z,8.74
2023-04-11T02:43:43.245Z,8.70
2023-04-11T02:46:45.940Z,8.66
2023-04-11T02:49:48.859Z,8.61
2023-04-11T02:52:53.230Z,8.59
2023-04-11T02:55:56.560Z,8.58
2023-04-11T02:58:59.279Z,8.56
2023-04-11T03:02:02.129Z,8.53
2023-04-11T03:05:06.496Z,8.51
2023-04-11T03:08:09.748Z,8.48
2023-04-11T03:11:13.056Z,8.44
2023-04-11T03:14:16.491Z,8.44
2023-04-11T03:17:19.851Z,8.40
2023-04-11T03:20:24.013Z,8.41
2023-04-11T03:23:27.773Z,8.45
2023-04-11T03:26:31.155Z,8.44
2023-04-11T03:29:34.688Z,8.44
2023-04-11T03:32:37.895Z,8.39
2023-04-11T03:35:40.665Z,8.41
2023-04-11T03:38:43.439Z,8.36
2023-04-11T03:41:46.103Z,8.30
2023-04-11T03:44:48.928Z,8.26
2023-04-11T03:47:51.889Z,8.24
2023-04-11T03:50:55.776Z,8.23
2023-04-11T03:53:59.421Z,8.22
2023-04-11T03:57:02.828Z,8.23
2023-04-11T04:00:14.317Z,8.28
2023-04-11T04:03:17.714Z,8.31
2023-04-11T04:06:21.594Z,8.33
2023-04-11T04:09:25.221Z,8.35
2023-04-11T04:12:29.269Z,8.38
2023-04-11T04:15:33.957Z,8.40
2023-04-11T04:18:37.757Z,8.38
2023-04-11T04:21:42.001Z,8.39
2023-04-11T04:24:47.909Z,8.49
2023-04-11T04:27:53.995Z,8.49
2023-04-11T04:30:58.196Z,8.55
2023-04-11T04:34:11.601Z,8.55
2023-04-11T04:37:23.084Z,8.52
2023-04-11T04:40:27.489Z,8.57
2023-04-11T04:43:32.574Z,8.59
2023-04-11T04:46:37.142Z,8.56
2023-04-11T04:49:41.232Z,8.57
2023-04-11T04:52:43.536Z,8.59
2023-04-11T04:55:46.877Z,8.60
2023-04-11T04:58:50.829Z,8.73
2023-04-11T05:01:54.564Z,8.73
2023-04-11T05:05:04.061Z,8.75
2023-04-11T05:08:08.280Z,8.74
2023-04-11T05:11:11.317Z,8.75
2023-04-11T05:14:14.398Z,8.96
2023-04-11T05:17:17.091Z,8.94
2023-04-11T05:20:20.127Z,9.00
2023-04-11T05:23:22.853Z,9.18
2023-04-11T05:26:26.313Z,9.24
2023-04-11T05:29:30.189Z,9.28
2023-04-11T05:32:35.385Z,9.27
2023-04-11T05:35:38.628Z,9.33
2023-04-11T05:38:42.524Z,9.56
2023-04-11T05:41:44.818Z,9.60
2023-04-11T05:44:47.747Z,9.78
2023-04-11T05:47:50.168Z,9.85
2023-04-11T05:50:53.131Z,9.90
2023-04-11T05:53:55.827Z,10.09
2023-04-11T05:56:59.106Z,10.25
2023-04-11T06:00:02.061Z,10.36
2023-04-11T06:03:14.764Z,10.53
2023-04-11T06:06:17.658Z,10.64
2023-04-11T06:09:20.631Z,10.79
2023-04-11T06:12:23.302Z,10.99
2023-04-11T06:15:26.806Z,11.10
2023-04-11T06:18:29.564Z,11.22
2023-04-11T06:21:32.327Z,11.32
2023-04-11T06:24:36.810Z,11.46
2023-04-11T06:27:39.378Z,11.53
2023-04-11T06:30:42.359Z,11.59
2023-04-11T06:33:45.115Z,11.77
2023-04-11T06:36:49.866Z,12.08
2023-04-11T06:39:52.453Z,12.15
2023-04-11T06:42:57.914Z,12.17
2023-04-11T06:46:00.561Z,12.33
2023-04-11T06:49:03.515Z,12.39
2023-04-11T06:52:06.140Z,12.56
2023-04-11T06:55:10.251Z,12.72
2023-04-11T06:58:12.841Z,12.96
2023-04-11T07:01:15.828Z,13.06
2023-04-11T07:04:18.559Z,13.03
2023-04-11T07:07:21.424Z,13.06
2023-04-11T07:10:25.200Z,13.15
2023-04-11T07:13:27.909Z,13.31
2023-04-11T07:16:30.579Z,13.56
2023-04-11T07:19:33.460Z,13.82
2023-04-11T07:22:38.884Z,14.13
2023-04-11T07:25:41.626Z,14.55
2023-04-11T07:28:47.904Z,15.14
2023-04-11T07:31:51.466Z,15.72
2023-04-11T07:34:54.133Z,16.12
2023-04-11T07:37:58.210Z,16.24
2023-04-11T07:41:01.717Z,16.28
2023-04-11T07:44:09.081Z,16.49
2023-04-11T07:47:11.722Z,16.35
2023-04-11T07:50:17.024Z,16.09
2023-04-11T07:53:19.682Z,15.97
2023-04-11T07:56:22.344Z,15.78
2023-04-11T07:59:25.008Z,15.44
2023-04-11T08:02:31.235Z,15.44
2023-04-11T08:05:34.953Z,15.44
2023-04-11T08:08:37.263Z,15.34
2023-04-11T08:11:40.870Z,15.20
2023-04-11T08:14:43.290Z,15.25
2023-04-11T08:17:46.624Z,15.15
2023-04-11T08:20:49.660Z,15.03
2023-04-11T08:23:52.885Z,15.18
2023-04-11T08:26:55.530Z,15.50
2023-04-11T08:29:59.124Z,15.99
2023-04-11T08:33:01.794Z,15.91
2023-04-11T08:36:05.427Z,15.98
2023-04-11T08:39:07.776Z,16.17
2023-04-11T08:42:26.568Z,16.51
2023-04-11T08:45:29.010Z,16.86
2023-04-11T08:48:32.461Z,17.16
2023-04-11T08:51:34.855Z,17.34
2023-04-11T08:54:37.804Z,17.35
2023-04-11T08:57:40.822Z,17.31
2023-04-11T09:00:44.207Z,16.98
2023-04-11T09:03:51.463Z,16.98
2023-04-11T09:07:00.464Z,16.74
2023-04-11T09:10:20.427Z,16.44
2023-04-11T09:13:24.413Z,16.32
2023-04-11T09:16:27.106Z,16.28
2023-04-11T09:19:31.500Z,16.17
2023-04-11T09:22:36.675Z,16.12
2023-04-11T09:25:46.121Z,16.19
2023-04-11T09:28:56.869Z,16.66
2023-04-11T09:31:59.930Z,17.39
2023-04-11T09:35:12.485Z,18.02
2023-04-11T09:38:29.523Z,18.35
2023-04-11T09:41:34.235Z,18.74
2023-04-11T09:44:38.541Z,19.33
2023-04-11T09:47:42.730Z,19.95
2023-04-11T09:50:48.377Z,20.73
2023-04-11T09:53:51.199Z,21.27
2023-04-11T09:56:54.386Z,21.70
2023-04-11T09:59:57.000Z,22.07
2023-04-11T10:03:00.116Z,21.22
2023-04-11T10:06:04.855Z,20.81
2023-04-11T10:09:08.473Z,20.58
2023-04-11T10:12:11.121Z,20.76
2023-04-11T10:15:13.842Z,21.52
2023-04-11T10:18:16.983Z,21.65
2023-04-11T10:21:46.738Z,21.78
2023-04-11T10:25:09.013Z,21.91
2023-04-11T10:28:28.998Z,21.91
2023-04-11T10:31:31.944Z,22.86
2023-04-11T10:34:38.793Z,23.67
2023-04-11T10:37:41.809Z,24.17
2023-04-11T10:41:02.933Z,23.42
2023-04-11T10:44:14.768Z,23.56
2023-04-11T10:47:17.814Z,23.77
2023-04-11T10:50:23.505Z,23.24
2023-04-11T10:53:37.082Z,22.93
2023-04-11T10:56:42.665Z,23.38
2023-04-11T10:59:51.293Z,23.96
2023-04-11T11:02:54.017Z,24.29
2023-04-11T11:05:58.586Z,24.25
2023-04-11T11:09:19.994Z,24.49
2023-04-11T11:12:25.089Z,24.63
2023-04-11T11:15:29.549Z,24.49
2023-04-11T11:18:32.137Z,24.26
2023-04-11T11:21:34.843Z,24.05
2023-04-11T11:24:37.461Z,24.02
2023-04-11T11:27:40.280Z,24.00
2023-04-11T11:30:49.684Z,24.01
2023-04-11T11:33:53.986Z,24.08
2023-04-11T11:36:57.545Z,23.80
2023-04-11T11:40:00.439Z,23.56
2023-04-11T11:43:03.153Z,23.26
2023-04-11T11:46:14.443Z,22.85
2023-04-11T11:49:17.614Z,21.90
2023-04-11T11:52:33.406Z,21.83
2023-04-11T11:55:36.503Z,22.05
2023-04-11T11:58:43.512Z,22.63
2023-04-11T12:01:46.225Z,22.67
2023-04-11T12:04:49.101Z,22.46
2023-04-11T12:07:55.766Z,22.04
2023-04-11T12:10:58.407Z,21.13
2023-04-11T12:14:01.321Z,20.34
2023-04-11T12:17:04.149Z,19.96
2023-04-11T12:20:08.088Z,19.72
2023-04-11T12:23:10.909Z,19.88
2023-04-11T12:26:13.785Z,20.17
2023-04-11T12:29:16.382Z,20.75
2023-04-11T12:32:19.038Z,21.41
2023-04-11T12:35:22.092Z,21.57
2023-04-11T12:38:24.746Z,21.44
2023-04-11T12:41:31.785Z,21.61
2023-04-11T12:44:36.000Z,21.36
2023-04-11T12:47:38.765Z,20.66
2023-04-11T12:50:41.732Z,20.81
2023-04-11T12:53:44.317Z,20.36
2023-04-11T12:56:47.100Z,20.35
2023-04-11T12:59:50.083Z,20.04
2023-04-11T13:02:53.696Z,19.90
2023-04-11T13:05:56.481Z,19.80
2023-04-11T13:08:59.435Z,19.89
2023-04-11T13:12:02.851Z,19.82
2023-04-11T13:15:06.406Z,19.78
2023-04-11T13:18:09.287Z,19.59
2023-04-11T13:21:11.949Z,19.29
2023-04-11T13:24:16.916Z,19.25
2023-04-11T13:27:19.577Z,19.18
2023-04-11T13:30:22.232Z,18.98
2023-04-11T13:33:24.758Z,18.86
2023-04-11T13:36:28.019Z,18.83
2023-04-11T13:39:30.688Z,18.97
2023-04-11T13:42:33.456Z,19.15
2023-04-11T13:45:36.149Z,19.11
2023-04-11T13:48:38.837Z,19.09
2023-04-11T13:51:41.598Z,19.19
2023-04-11T13:54:44.259Z,19.18
2023-04-11T13:57:47.012Z,19.23
2023-04-11T14:00:50.450Z,19.39
2023-04-11T14:03:53.560Z,19.39
2023-04-11T14:06:55.982Z,19.32
2023-04-11T14:09:59.061Z,19.13
2023-04-11T14:13:01.695Z,19.14
2023-04-11T14:16:08.879Z,19.00
2023-04-11T14:19:11.878Z,19.11
2023-04-11T14:22:14.909Z,19.10
2023-04-11T14:25:17.213Z,18.86
2023-04-11T14:28:20.185Z,18.79
2023-04-11T14:31:22.949Z,18.72
2023-04-11T14:34:26.172Z,18.63
2023-04-11T14:37:28.559Z,18.76
2023-04-11T14:40:31.591Z,18.73
2023-04-11T14:43:34.032Z,18.55
2023-04-11T14:46:37.120Z,18.48
2023-04-11T14:49:39.458Z,18.44
2023-04-11T14:52:42.340Z,18.27
2023-04-11T14:55:44.795Z,18.08
2023-04-11T14:58:48.010Z,17.88
2023-04-11T15:01:50.642Z,17.59
2023-04-11T15:04:53.825Z,17.47
2023-04-11T15:07:57.218Z,17.45
2023-04-11T15:11:00.371Z,17.09
2023-04-11T15:14:02.925Z,17.09
2023-04-11T15:17:06.120Z,16.93
2023-04-11T15:20:11.903Z,16.74
2023-04-11T15:23:14.815Z,16.51
2023-04-11T15:26:17.144Z,16.43
2023-04-11T15:29:20.060Z,16.30
2023-04-11T15:32:22.409Z,16.05
2023-04-11T15:35:25.648Z,15.80
2023-04-11T15:38:28.638Z,15.78
2023-04-11T15:41:34.898Z,15.56
2023-04-11T15:44:37.214Z,15.41
2023-04-11T15:47:40.284Z,15.13
2023-04-11T15:50:42.989Z,14.87
2023-04-11T15:53:45.984Z,14.70
2023-04-11T15:56:50.152Z,14.47
2023-04-11T15:59:53.387Z,14.39
2023-04-11T16:03:02.516Z,14.14
2023-04-11T16:06:06.094Z,13.96
2023-04-11T16:09:08.927Z,14.01
2023-04-11T16:12:12.106Z,13.95
2023-04-11T16:15:14.704Z,13.90
2023-04-11T16:18:18.007Z,13.73
2023-04-11T16:21:20.785Z,13.66
2023-04-11T16:24:23.878Z,13.57
2023-04-11T16:27:26.226Z,13.49
2023-04-11T16:30:29.341Z,13.69
2023-04-11T16:33:31.884Z,13.58
2023-04-11T16:36:35.490Z,13.43
2023-04-11T16:39:38.366Z,13.37
2023-04-11T16:42:41.524Z,13.36
2023-04-11T16:45:45.717Z,13.30
2023-04-11T16:48:48.604Z,13.36
2023-04-11T16:51:51.057Z,13.33
2023-04-11T16:54:54.079Z,13.30
2023-04-11T16:57:56.438Z,13.38
2023-04-11T17:01:00.132Z,13.40
2023-04-11T17:04:05.722Z,13.54
2023-04-11T17:07:09.602Z,13.55
2023-04-11T17:10:12.923Z,13.41
2023-04-11T17:13:18.562Z,13.49
2023-04-11T17:16:23.654Z,13.30
2023-04-11T17:19:26.831Z,13.31
2023-04-11T17:22:29.411Z,13.19
2023-04-11T17:25:32.376Z,13.25
2023-04-11T17:28:35.124Z,13.23
2023-04-11T17:31:38.593Z,13.12
2023-04-11T17:34:40.912Z,13.14
2023-04-11T17:37:43.975Z,13.15
2023-04-11T17:40:46.406Z,13.29
2023-04-11T17:43:49.341Z,13.19
2023-04-11T17:46:51.848Z,12.93
2023-04-11T17:49:56.802Z,12.94
2023-04-11T17:52:59.161Z,12.81
2023-04-11T17:56:03.332Z,12.74
2023-04-11T17:59:05.766Z,12.68
2023-04-11T18:02:09.077Z,12.68
2023-04-11T18:05:23.813Z,12.67
2023-04-11T18:08:46.902Z,12.70
2023-04-11T18:11:51.330Z,12.75
2023-04-11T18:14:54.311Z,12.70
2023-04-11T18:17:56.993Z,12.62
2023-04-11T18:21:07.805Z,12.59
2023-04-11T18:24:10.822Z,12.48
2023-04-11T18:27:13.503Z,12.56
2023-04-11T18:30:16.629Z,12.42
2023-04-11T18:33:20.802Z,12.36
2023-04-11T18:36:24.603Z,12.37
2023-04-11T18:39:27.910Z,12.32
2023-04-11T18:42:30.544Z,12.39
2023-04-11T18:45:33.553Z,12.29
2023-04-11T18:48:36.653Z,12.24
2023-04-11T18:51:39.742Z,12.30
2023-04-11T18:54:42.353Z,12.25
2023-04-11T18:57:48.408Z,12.15
2023-04-11T19:00:51.704Z,12.09
2023-04-11T19:03:58.255Z,12.20
2023-04-11T19:07:01.432Z,12.15
2023-04-11T19:10:04.180Z,12.05
2023-04-11T19:13:06.967Z,12.01
2023-04-11T19:16:09.760Z,12.01
2023-04-11T19:19:12.818Z,11.99
2023-04-11T19:22:15.992Z,11.87
2023-04-11T19:25:18.735Z,11.82
2023-04-11T19:28:21.428Z,11.91
2023-04-11T19:31:27.085Z,11.75
2023-04-11T19:34:30.378Z,11.76
2023-04-11T19:37:33.684Z,11.64
2023-04-11T19:40:36.350Z,11.58
2023-04-11T19:43:39.034Z,11.68
2023-04-11T19:46:41.770Z,11.67
2023-04-11T19:49:44.423Z,11.58
2023-04-11T19:52:47.434Z,11.51
2023-04-11T19:55:53.635Z,11.50
2023-04-11T19:58:56.712Z,11.42
2023-04-11T20:02:01.688Z,11.43
2023-04-11T20:05:06.931Z,11.41
2023-04-11T20:08:09.456Z,11.32
2023-04-11T20:11:16.142Z,11.30
2023-04-11T20:14:18.538Z,11.28
2023-04-11T20:17:21.618Z,11.22
2023-04-11T20:20:28.062Z,11.29
2023-04-11T20:23:34.877Z,11.24
2023-04-11T20:26:37.225Z,11.27
2023-04-11T20:29:41.482Z,11.22
2023-04-11T20:32:44.422Z,11.23
2023-04-11T20:35:47.474Z,11.35
2023-04-11T20:38:51.325Z,11.31
2023-04-11T20:41:54.393Z,11.21
2023-04-11T20:45:08.137Z,11.10
2023-04-11T20:48:12.978Z,11.02
2023-04-11T20:51:16.064Z,11.01
2023-04-11T20:54:19.852Z,10.99
2023-04-11T20:57:22.459Z,10.97
2023-04-11T21:00:25.981Z,10.97
2023-04-11T21:03:30.380Z,10.98
2023-04-11T21:06:33.596Z,10.88
2023-04-11T21:09:36.418Z,10.87
2023-04-11T21:12:39.714Z,10.93
2023-04-11T21:15:42.921Z,10.97
2023-04-11T21:18:46.100Z,10.89
2023-04-11T21:21:48.592Z,10.79
2023-04-11T21:24:51.538Z,10.79
2023-04-11T21:27:54.081Z,10.71
2023-04-11T21:30:57.026Z,10.73
2023-04-11T21:33:59.700Z,10.78
2023-04-11T21:37:02.887Z,10.72
2023-04-11T21:40:05.585Z,10.64
2023-04-11T21:43:08.522Z,10.75
2023-04-11T21:46:10.887Z,10.57
2023-04-11T21:49:13.819Z,10.44
2023-04-11T21:52:16.238Z,10.43
2023-04-11T21:55:19.310Z,10.28
2023-04-11T21:58:28.963Z,10.24
2023-04-11T22:01:32.456Z,10.36
2023-04-11T22:04:41.306Z,10.22
2023-04-11T22:07:51.302Z,10.30
2023-04-11T22:10:54.141Z,10.20
2023-04-11T22:13:58.387Z,10.12
2023-04-11T22:17:01.273Z,10.19
2023-04-11T22:20:06.595Z,10.08
2023-04-11T22:23:13.230Z,9.97
2023-04-11T22:26:16.568Z,10.01
2023-04-11T22:29:20.707Z,9.90
2023-04-11T22:32:23.736Z,9.81
2023-04-11T22:35:26.553Z,9.71
2023-04-11T22:38:30.083Z,9.81
2023-04-11T22:41:33.233Z,9.79
2023-04-11T22:44:35.982Z,9.74
2023-04-11T22:47:40.159Z,9.69
2023-04-11T22:50:49.432Z,9.55
2023-04-11T22:53:52.088Z,9.57
2023-04-11T22:56:58.038Z,9.52
2023-04-11T23:00:02.980Z,9.36
2023-04-11T23:03:07.397Z,9.28
2023-04-11T23:06:11.031Z,9.17
2023-04-11T23:09:15.079Z,9.09
2023-04-11T23:12:18.039Z,9.13
2023-04-11T23:15:21.954Z,8.99
2023-04-11T23:18:24.712Z,9.05
2023-04-11T23:21:28.935Z,8.97
2023-04-11T23:24:31.702Z,8.88
2023-04-11T23:27:34.369Z,8.85
2023-04-11T23:30:38.774Z,8.78
2023-04-11T23:33:42.157Z,8.68
2023-04-11T23:36:45.321Z,8.64
2023-04-11T23:39:47.943Z,8.66
2023-04-11T23:42:50.546Z,8.65
2023-04-11T23:45:54.367Z,8.76
2023-04-11T23:48:57.362Z,8.64
2023-04-11T23:52:00.041Z,8.61
2023-04-11T23:55:02.688Z,8.49
2023-04-11T23:58:05.441Z,8.45
